Thunder radar more information blitzortung!


Radar de pluja more information rain snow radar


Visita la nostra xarxa de llocs de meteo:

Template documentation
and downloads

And another site



Wind From: 11-12-2017 11:00 Until: 14:59 warning for: Wind Level: Yellow info button

Pagina Historial Weather Underground text

Diari Resum Marc 8, 2016 Unitats:  Mètric    Imperial   Tant
« Previous Dia
SegĂźent Dia »
Diari Setmana Mensual Anual Personalitzada
  Maxima: Minima: Media:
Temperatura: 16.5 °C 1.9 °C 10.6 °C
Punt de rosada: 2.0 °C -8.2 °C -1.6 °C
Humitat: 67 % 21 % 46 %
Wind Speed: 16.7 km/h 0.0 km/h 6.9 km/h
RĂ fegues de vent: 16.7 km/h - -
Vent:- - SE
Pression baro: 1017.8 hPa 1013.8 hPa -
Precipitacions: 0.0 mm    
Historical Graphs
 
 
Dades de taula per Marc 8, 2016
Temps Temperatura Punt de rosada Pression baro Vent Wind Speed RĂ fegues de vent Humitat Rainfall Rate (Hourly)
02:05 5.5 °C -2.8 °C 1013.8 hPa WSW 1.6 km/h 3.2 km/h 55 % 0.0 mm
02:15 5.6 °C -2.7 °C 1013.8 hPa WSW 1.6 km/h 3.2 km/h 55 % 0.0 mm
02:25 5.9 °C -2.4 °C 1013.8 hPa WSW 1.6 km/h 3.2 km/h 55 % 0.0 mm
02:35 6.8 °C -1.6 °C 1014.8 hPa WSW 1.6 km/h 6.4 km/h 55 % 0.0 mm
02:45 7.0 °C -1.7 °C 1014.8 hPa WSW 1.6 km/h 4.8 km/h 54 % 0.0 mm
02:55 7.2 °C -1.5 °C 1014.8 hPa NW 3.2 km/h 6.4 km/h 54 % 0.0 mm
03:05 7.2 °C -1.5 °C 1014.8 hPa NNE 3.2 km/h 6.4 km/h 54 % 0.0 mm
03:15 7.8 °C -0.9 °C 1014.8 hPa NNW 4.8 km/h 6.4 km/h 54 % 0.0 mm
03:25 7.9 °C -0.8 °C 1014.8 hPa NE 3.2 km/h 4.8 km/h 54 % 0.0 mm
03:35 7.9 °C -1.1 °C 1014.8 hPa NE 3.2 km/h 6.4 km/h 53 % 0.0 mm
03:45 8.3 °C -0.7 °C 1014.8 hPa NE 4.8 km/h 6.4 km/h 53 % 0.0 mm
03:55 9.0 °C -0.1 °C 1014.8 hPa NE 4.8 km/h 6.4 km/h 53 % 0.0 mm
04:05 9.2 °C -0.2 °C 1015.8 hPa ENE 1.6 km/h 9.7 km/h 52 % 0.0 mm
04:15 9.2 °C -0.2 °C 1015.8 hPa NE 4.8 km/h 6.4 km/h 52 % 0.0 mm
04:25 9.6 °C -0.1 °C 1015.8 hPa NE 3.2 km/h 6.4 km/h 51 % 0.0 mm
10:35 9.9 °C 0.2 °C 1015.8 hPa NNE 3.7 km/h 3.7 km/h 51 % 0.0 mm
10:41 10.3 °C 0.6 °C 1015.8 hPa ENE 3.7 km/h 3.7 km/h 51 % 0.0 mm
10:46 10.6 °C 0.6 °C 1015.8 hPa NNE 4.2 km/h 4.2 km/h 50 % 0.0 mm
10:51 10.7 °C 0.7 °C 1015.8 hPa NNE 1.9 km/h 1.9 km/h 50 % 0.0 mm
10:56 11.0 °C 0.9 °C 1015.8 hPa SW 5.6 km/h 5.6 km/h 50 % 0.0 mm
11:01 11.0 °C 0.4 °C 1015.8 hPa NE 3.9 km/h 3.9 km/h 48 % 0.0 mm
11:06 11.3 °C 0.7 °C 1015.8 hPa NE 5.6 km/h 5.6 km/h 48 % 0.0 mm
11:11 11.5 °C 0.8 °C 1015.8 hPa NE 2.6 km/h 2.6 km/h 48 % 0.0 mm
11:16 11.6 °C 0.7 °C 1015.8 hPa NE 5.6 km/h 5.6 km/h 47 % 0.0 mm
11:21 11.6 °C 0.7 °C 1015.8 hPa ENE 6.9 km/h 6.9 km/h 47 % 0.0 mm
11:26 11.6 °C 0.7 °C 1015.8 hPa ENE 7.4 km/h 7.4 km/h 47 % 0.0 mm
11:31 11.8 °C 0.6 °C 1015.8 hPa ENE 7.4 km/h 7.4 km/h 46 % 0.0 mm
11:36 11.9 °C 0.6 °C 1015.8 hPa East 7.4 km/h 7.4 km/h 46 % 0.0 mm
11:46 12.4 °C 0.8 °C 1015.8 hPa SW 7.4 km/h 7.4 km/h 45 % 0.0 mm
11:51 12.6 °C 0.7 °C 1015.8 hPa SW 5.6 km/h 5.6 km/h 44 % 0.0 mm
11:56 12.8 °C 0.5 °C 1015.8 hPa ENE 9.3 km/h 9.3 km/h 43 % 0.0 mm
12:01 12.8 °C 0.5 °C 1015.8 hPa NW 7.4 km/h 7.4 km/h 43 % 0.0 mm
12:06 13.3 °C -0.4 °C 1015.8 hPa SW 10.3 km/h 10.3 km/h 39 % 0.0 mm
12:11 13.6 °C -0.8 °C 1015.8 hPa WSW 5.8 km/h 5.8 km/h 37 % 0.0 mm
12:16 13.7 °C -1.5 °C 1014.8 hPa NW 7.4 km/h 7.4 km/h 35 % 0.0 mm
12:21 13.7 °C -2.7 °C 1014.8 hPa WSW 11.1 km/h 11.1 km/h 32 % 0.0 mm
12:26 13.8 °C -2.6 °C 1014.8 hPa NNE 7.4 km/h 7.4 km/h 32 % 0.0 mm
12:31 13.9 °C -3.0 °C 1015.8 hPa SW 9.3 km/h 9.3 km/h 31 % 0.0 mm
12:36 13.9 °C -3.0 °C 1015.8 hPa West 5.8 km/h 5.8 km/h 31 % 0.0 mm
12:41 14.4 °C -2.6 °C 1014.8 hPa SW 3.7 km/h   31 % 0.0 mm
12:46 14.5 °C -2.4 °C 1014.8 hPa NNE 11.1 km/h 11.1 km/h 31 % 0.0 mm
12:51 14.3 °C -2.6 °C 1014.8 hPa NNW 7.4 km/h 7.4 km/h 31 % 0.0 mm
12:56 14.2 °C -2.7 °C 1015.8 hPa West 5.6 km/h 5.6 km/h 31 % 0.0 mm
13:01 14.4 °C -2.6 °C 1015.8 hPa WNW 5.6 km/h 5.6 km/h 31 % 0.0 mm
13:06 14.3 °C -3.1 °C 1015.8 hPa SW 4.2 km/h 4.2 km/h 30 % 0.0 mm
13:11 14.6 °C -2.8 °C 1014.8 hPa NNE 7.4 km/h 7.4 km/h 30 % 0.0 mm
13:16 14.4 °C -3.4 °C 1014.8 hPa SW 11.1 km/h 11.1 km/h 29 % 0.0 mm
13:21 14.7 °C -2.7 °C 1014.8 hPa SSW 9.0 km/h 9.0 km/h 30 % 0.0 mm
13:26 14.6 °C -3.3 °C 1014.8 hPa WSW 7.4 km/h 7.4 km/h 29 % 0.0 mm
13:31 14.9 °C -3.0 °C 1014.8 hPa South 11.1 km/h 11.1 km/h 29 % 0.0 mm
13:37 15.0 °C -3.4 °C 1014.8 hPa NNE 16.7 km/h 16.7 km/h 28 % 0.0 mm
13:42 15.3 °C -3.1 °C 1014.8 hPa WNW 9.3 km/h 9.3 km/h 28 % 0.0 mm
13:47 15.8 °C -2.7 °C 1014.8 hPa SSW 3.9 km/h 3.9 km/h 28 % 0.0 mm
13:52 15.4 °C -3.6 °C 1014.8 hPa NW 9.3 km/h 9.3 km/h 27 % 0.0 mm
13:57 14.8 °C -4.1 °C 1014.8 hPa South 3.7 km/h 3.7 km/h 27 % 0.0 mm
14:02 15.1 °C -3.3 °C 1014.8 hPa WNW 7.4 km/h 7.4 km/h 28 % 0.0 mm
14:07 15.4 °C -3.6 °C 1014.8 hPa SSW 7.4 km/h 7.4 km/h 27 % 0.0 mm
14:12 15.0 °C -3.9 °C 1014.8 hPa NNE 3.2 km/h 3.2 km/h 27 % 0.0 mm
14:17 14.9 °C -3.9 °C 1014.8 hPa North 9.3 km/h 9.3 km/h 27 % 0.0 mm
14:22 15.3 °C -3.1 °C 1014.8 hPa SSW 9.0 km/h 9.0 km/h 28 % 0.0 mm
14:27 15.6 °C -2.9 °C 1014.8 hPa WSW 7.4 km/h 7.4 km/h 28 % 0.0 mm
14:32 15.7 °C -3.3 °C 1014.8 hPa West 9.3 km/h 9.3 km/h 27 % 0.0 mm
14:37 15.9 °C -2.6 °C 1014.8 hPa WSW 9.3 km/h 9.3 km/h 28 % 0.0 mm
14:42 15.9 °C -3.1 °C 1014.8 hPa NW 13.0 km/h 13.0 km/h 27 % 0.0 mm
14:47 16.0 °C -3.0 °C 1014.8 hPa WSW 7.6 km/h 7.6 km/h 27 % 0.0 mm
14:52 16.0 °C -3.5 °C 1014.8 hPa SW 11.1 km/h 11.1 km/h 26 % 0.0 mm
14:57 15.7 °C -3.8 °C 1014.8 hPa West 10.3 km/h 10.3 km/h 26 % 0.0 mm
15:02 15.7 °C -4.3 °C 1014.8 hPa WSW 11.1 km/h 11.1 km/h 25 % 0.0 mm
15:07 15.8 °C -4.2 °C 1014.8 hPa WSW 11.9 km/h 11.9 km/h 25 % 0.0 mm
15:12 15.6 °C -4.4 °C 1014.8 hPa WSW 11.1 km/h 11.1 km/h 25 % 0.0 mm
15:17 15.5 °C -5.0 °C 1014.8 hPa SW 14.8 km/h 14.8 km/h 24 % 0.0 mm
15:22 15.8 °C -4.2 °C 1014.8 hPa WSW 5.6 km/h 5.6 km/h 25 % 0.0 mm
15:27 16.1 °C -4.5 °C 1014.8 hPa WSW 9.3 km/h 9.3 km/h 24 % 0.0 mm
15:32 15.9 °C -5.2 °C 1014.8 hPa West 14.8 km/h 14.8 km/h 23 % 0.0 mm
15:37 15.8 °C -5.3 °C 1014.8 hPa WSW 7.4 km/h 7.4 km/h 23 % 0.0 mm
15:42 16.0 °C -4.6 °C 1014.8 hPa SW 9.0 km/h 9.0 km/h 24 % 0.0 mm
15:47 16.1 °C -5.1 °C 1014.8 hPa SW 14.8 km/h 14.8 km/h 23 % 0.0 mm
15:52 16.2 °C -5.0 °C 1014.8 hPa WNW 13.0 km/h 13.0 km/h 23 % 0.0 mm
15:57 16.5 °C -4.2 °C 1013.8 hPa West 9.3 km/h 9.3 km/h 24 % 0.0 mm
16:02 16.1 °C -5.7 °C 1013.8 hPa NNE 11.1 km/h 11.1 km/h 22 % 0.0 mm
16:07 16.0 °C -5.2 °C 1013.8 hPa WSW 9.3 km/h 9.3 km/h 23 % 0.0 mm
16:12 16.3 °C -5.5 °C 1014.8 hPa WSW 12.6 km/h 12.6 km/h 22 % 0.0 mm
16:17 16.4 °C -4.8 °C 1014.8 hPa SW 5.6 km/h 5.6 km/h 23 % 0.0 mm
16:22 16.2 °C -5.6 °C 1014.8 hPa SSW 7.4 km/h 7.4 km/h 22 % 0.0 mm
16:27 16.0 °C -6.3 °C 1014.8 hPa WSW 13.0 km/h 13.0 km/h 21 % 0.0 mm
16:32 16.0 °C -6.3 °C 1014.8 hPa WNW 9.3 km/h 9.3 km/h 21 % 0.0 mm
16:37 16.4 °C -5.4 °C 1014.8 hPa West 6.1 km/h 6.1 km/h 22 % 0.0 mm
16:42 16.5 °C -5.3 °C 1014.8 hPa WSW 6.1 km/h 6.1 km/h 22 % 0.0 mm
16:47 16.4 °C -5.4 °C 1014.8 hPa WSW 5.6 km/h 5.6 km/h 22 % 0.0 mm
16:52 16.4 °C -5.4 °C 1014.8 hPa SW 5.6 km/h 5.6 km/h 22 % 0.0 mm
16:57 16.3 °C -5.5 °C 1014.8 hPa NW 6.4 km/h 6.4 km/h 22 % 0.0 mm
17:02 15.4 °C -2.1 °C 1014.8 hPa NNE 16.7 km/h 16.7 km/h 30 % 0.0 mm
17:07 14.1 °C -2.8 °C 1014.8 hPa ENE 11.1 km/h 11.1 km/h 31 % 0.0 mm
17:12 13.8 °C -2.6 °C 1014.8 hPa East 7.4 km/h 7.4 km/h 32 % 0.0 mm
17:17 13.5 °C -2.5 °C 1014.8 hPa NE 11.4 km/h 11.4 km/h 33 % 0.0 mm
17:22 13.2 °C -2.3 °C 1014.8 hPa NNE 14.8 km/h 14.8 km/h 34 % 0.0 mm
17:27 12.6 °C -2.1 °C 1015.8 hPa ENE 9.5 km/h 11.1 km/h 36 % 0.0 mm
17:32 12.5 °C -0.4 °C 1015.8 hPa NNE 16.1 km/h 16.1 km/h 41 % 0.0 mm
17:37 12.0 °C 0.1 °C 1015.8 hPa NNE 14.8 km/h 14.8 km/h 44 % 0.0 mm
17:42 11.9 °C 0.6 °C 1015.8 hPa ESE 10.0 km/h 10.0 km/h 46 % 0.0 mm
17:47 11.5 °C 1.4 °C 1015.8 hPa ENE 14.8 km/h 14.8 km/h 50 % 0.0 mm
17:52 11.3 °C 1.2 °C 1015.8 hPa ESE 14.8 km/h 14.8 km/h 50 % 0.0 mm
17:57 11.1 °C 1.3 °C 1015.8 hPa ESE 16.7 km/h 16.7 km/h 51 % 0.0 mm
18:02 11.1 °C 1.3 °C 1015.8 hPa ESE 5.6 km/h 7.6 km/h 51 % 0.0 mm
18:07 11.1 °C 1.3 °C 1015.8 hPa ENE 11.1 km/h 11.1 km/h 51 % 0.0 mm
18:17 10.8 °C 1.1 °C 1015.8 hPa ENE 11.1 km/h 11.1 km/h 51 % 0.0 mm
18:22 10.6 °C 0.9 °C 1015.8 hPa ENE 9.3 km/h 9.3 km/h 51 % 0.0 mm
18:27 10.6 °C 0.9 °C 1015.8 hPa ESE 9.3 km/h 9.3 km/h 51 % 0.0 mm
18:32 10.5 °C 0.8 °C 1015.8 hPa NNE 14.8 km/h 14.8 km/h 51 % 0.0 mm
18:37 10.5 °C 1.1 °C 1015.8 hPa NNE 9.3 km/h 9.3 km/h 52 % 0.0 mm
18:42 10.4 °C 0.7 °C 1015.8 hPa ESE 4.7 km/h 6.1 km/h 51 % 0.0 mm
18:47 10.3 °C 0.6 °C 1015.8 hPa East 5.6 km/h 5.6 km/h 51 % 0.0 mm
18:52 10.2 °C 0.8 °C 1015.8 hPa ENE 7.4 km/h 7.4 km/h 52 % 0.0 mm
18:57 10.1 °C 0.7 °C 1015.8 hPa ENE 6.1 km/h 6.1 km/h 52 % 0.0 mm
19:02 10.1 °C 0.7 °C 1015.8 hPa East 7.6 km/h 7.6 km/h 52 % 0.0 mm
19:07 10.0 °C 0.6 °C 1015.8 hPa NNE 7.4 km/h 7.4 km/h 52 % 0.0 mm
19:12 9.9 °C 0.8 °C 1015.8 hPa ENE 7.9 km/h 7.9 km/h 53 % 0.0 mm
19:17 9.8 °C 0.9 °C 1015.8 hPa East 5.6 km/h 5.8 km/h 54 % 0.0 mm
19:22 9.7 °C 0.6 °C 1015.8 hPa NE 9.5 km/h 9.5 km/h 53 % 0.0 mm
19:27 9.6 °C 0.7 °C 1016.8 hPa ENE 7.4 km/h 7.4 km/h 54 % 0.0 mm
19:32 9.5 °C 0.9 °C 1016.8 hPa NE 6.1 km/h 6.1 km/h 55 % 0.0 mm
19:37 9.4 °C 0.8 °C 1016.8 hPa NNE 4.7 km/h 6.4 km/h 55 % 0.0 mm
19:42 9.2 °C 0.6 °C 1016.8 hPa NNE 5.6 km/h 5.6 km/h 55 % 0.0 mm
19:47 9.2 °C 0.9 °C 1016.8 hPa NNE 5.6 km/h 5.6 km/h 56 % 0.0 mm
19:52 9.0 °C 0.7 °C 1016.8 hPa NE 7.6 km/h 7.6 km/h 56 % 0.0 mm
19:57 8.9 °C 1.1 °C 1016.8 hPa ENE 9.3 km/h 9.3 km/h 58 % 0.0 mm
20:02 8.8 °C 1.0 °C 1016.8 hPa ENE 9.3 km/h 9.3 km/h 58 % 0.0 mm
20:07 8.7 °C 1.3 °C 1016.8 hPa ENE 9.3 km/h 9.3 km/h 60 % 0.0 mm
20:12 8.7 °C 1.3 °C 1015.8 hPa ENE 9.3 km/h 9.3 km/h 60 % 0.0 mm
20:15 4.1 °C -3.7 °C 1017.8 hPa Calm   3.2 km/h 57 % 0.0 mm
20:17 8.6 °C 1.7 °C 1015.8 hPa ENE 9.3 km/h 9.3 km/h 62 % 0.0 mm
20:22 8.6 °C 1.7 °C 1015.8 hPa ENE 9.3 km/h 9.3 km/h 62 % 0.0 mm
20:27 8.5 °C 1.6 °C 1017.8 hPa ENE 9.3 km/h 9.3 km/h 62 % 0.0 mm
20:32 8.5 °C 1.8 °C 1017.8 hPa ENE 9.3 km/h 9.3 km/h 63 % 0.0 mm
20:35 4.3 °C -4.2 °C 1017.8 hPa Calm   3.2 km/h 54 % 0.0 mm
20:37 8.4 °C 1.8 °C 1017.8 hPa ENE 9.3 km/h 9.3 km/h 63 % 0.0 mm
20:42 8.4 °C 1.8 °C 1016.8 hPa ENE 9.3 km/h 9.3 km/h 63 % 0.0 mm
20:45 4.1 °C -4.6 °C 1017.8 hPa South 3.2 km/h 3.2 km/h 53 % 0.0 mm
20:47 8.4 °C 2.0 °C 1016.8 hPa ENE 9.3 km/h 9.3 km/h 64 % 0.0 mm
20:52 8.4 °C 2.0 °C 1016.8 hPa ENE 9.3 km/h 9.3 km/h 64 % 0.0 mm
20:55 3.8 °C -4.9 °C 1017.8 hPa South 1.6 km/h 4.8 km/h 53 % 0.0 mm
20:57 8.4 °C 2.0 °C 1017.8 hPa ENE 9.3 km/h 9.3 km/h 64 % 0.0 mm
21:02 8.3 °C 1.9 °C 1017.8 hPa ENE 9.3 km/h 9.3 km/h 64 % 0.0 mm
21:05 3.5 °C -5.2 °C 1017.8 hPa Calm     53 % 0.0 mm
21:07 8.3 °C 1.9 °C 1017.8 hPa ENE 9.3 km/h 9.3 km/h 64 % 0.0 mm
21:12 8.2 °C 2.0 °C 1017.8 hPa ENE 9.3 km/h 9.3 km/h 65 % 0.0 mm
21:15 3.4 °C -5.6 °C 1016.8 hPa Calm   1.6 km/h 52 % 0.0 mm
21:17 8.2 °C 2.0 °C 1017.8 hPa ENE 9.3 km/h 9.3 km/h 65 % 0.0 mm
21:22 8.2 °C 2.0 °C 1017.8 hPa ENE 9.3 km/h 9.3 km/h 65 % 0.0 mm
21:25 3.4 °C -5.6 °C 1016.8 hPa Calm   3.2 km/h 52 % 0.0 mm
21:27 8.1 °C 1.9 °C 1016.8 hPa NNE 9.3 km/h 9.3 km/h 65 % 0.0 mm
21:32 8.1 °C 1.9 °C 1016.8 hPa NNE 3.9 km/h 4.2 km/h 65 % 0.0 mm
21:35 3.1 °C -5.8 °C 1016.8 hPa WSW 3.2 km/h 3.2 km/h 52 % 0.0 mm
21:37 8.0 °C 1.8 °C 1016.8 hPa NNE 3.9 km/h 4.2 km/h 65 % 0.0 mm
21:42 7.9 °C 1.7 °C 1017.8 hPa NNE 3.9 km/h 4.2 km/h 65 % 0.0 mm
21:45 3.4 °C -5.8 °C 1016.8 hPa WSW 3.2 km/h 4.8 km/h 51 % 0.0 mm
21:47 7.8 °C 1.6 °C 1017.8 hPa NNE 3.9 km/h 4.2 km/h 65 % 0.0 mm
21:52 7.8 °C 1.6 °C 1017.8 hPa NNE 3.9 km/h 4.2 km/h 65 % 0.0 mm
21:55 3.4 °C -6.1 °C 1016.8 hPa SW 3.2 km/h 4.8 km/h 50 % 0.0 mm
21:57 7.7 °C 1.6 °C 1017.8 hPa NNE 3.9 km/h 4.2 km/h 65 % 0.0 mm
22:02 7.6 °C 1.4 °C 1017.8 hPa NNE 3.9 km/h 4.2 km/h 65 % 0.0 mm
22:05 3.3 °C -6.4 °C 1016.8 hPa SW 3.2 km/h 4.8 km/h 49 % 0.0 mm
22:07 7.6 °C 1.7 °C 1017.8 hPa NNE 3.9 km/h 4.2 km/h 66 % 0.0 mm
22:17 7.6 °C 1.4 °C 1017.8 hPa NNE 3.9 km/h 4.2 km/h 65 % 0.0 mm
22:22 7.6 °C 1.7 °C 1017.8 hPa NNE 3.9 km/h 4.2 km/h 66 % 0.0 mm
22:25 3.0 °C -6.9 °C 1015.8 hPa SW 3.2 km/h 3.2 km/h 48 % 0.0 mm
22:27 7.5 °C 1.6 °C 1017.8 hPa NNE 3.9 km/h 4.2 km/h 66 % 0.0 mm
22:32 7.4 °C 1.4 °C 1017.8 hPa NE 6.1 km/h 6.1 km/h 66 % 0.0 mm
22:35 3.0 °C -6.9 °C 1015.8 hPa WSW 3.2 km/h 4.8 km/h 48 % 0.0 mm
22:37 7.5 °C 1.6 °C 1017.8 hPa NE 6.1 km/h 6.1 km/h 66 % 0.0 mm
22:42 7.4 °C 1.4 °C 1017.8 hPa NE 6.1 km/h 6.1 km/h 66 % 0.0 mm
22:45 3.0 °C -7.2 °C 1015.8 hPa Calm   3.2 km/h 47 % 0.0 mm
22:47 7.3 °C 1.4 °C 1017.8 hPa NE 6.1 km/h 6.1 km/h 66 % 0.0 mm
22:52 7.3 °C 1.4 °C 1017.8 hPa NE 3.9 km/h 3.9 km/h 66 % 0.0 mm
22:55 2.8 °C -7.4 °C 1015.8 hPa West 1.6 km/h 3.2 km/h 47 % 0.0 mm
22:57 7.3 °C 1.4 °C 1017.8 hPa NE 3.9 km/h 3.9 km/h 66 % 0.0 mm
23:02 7.3 °C 1.4 °C 1017.8 hPa NE 3.9 km/h 3.9 km/h 66 % 0.0 mm
23:05 2.6 °C -7.6 °C 1016.8 hPa Calm   3.2 km/h 47 % 0.0 mm
23:07 7.2 °C 1.3 °C 1017.8 hPa NNE 7.4 km/h 7.4 km/h 66 % 0.0 mm
23:12 7.2 °C 1.3 °C 1017.8 hPa NNE 7.4 km/h 7.4 km/h 66 % 0.0 mm
23:15 2.3 °C -7.6 °C 1015.8 hPa East 1.6 km/h 4.8 km/h 48 % 0.0 mm
23:17 7.2 °C 1.5 °C 1017.8 hPa NNE 5.6 km/h 5.6 km/h 67 % 0.0 mm
23:22 7.0 °C 1.1 °C 1017.8 hPa NNE 3.9 km/h 4.2 km/h 66 % 0.0 mm
23:25 2.1 °C -8.1 °C 1015.8 hPa SW 1.6 km/h 3.2 km/h 47 % 0.0 mm
23:35 1.9 °C -8.2 °C 1016.8 hPa SW 1.6 km/h 1.6 km/h 47 % 0.0 mm
23:45 1.9 °C -8.2 °C 1015.8 hPa Calm   4.8 km/h 47 % 0.0 mm
23:55 1.9 °C -8.2 °C 1015.8 hPa Calm   1.6 km/h 47 % 0.0 mm
Meteo Sesrovires
Elogis d' Weather Underground - 3.5 mb

Guio original per  Jim McMurry - jmcmurry@mwt.net Adaptat per a la plantilla per  Wim van der Kuil - Leuven-Template.eu

Trobareu la nostra informacio del temps tambe a:

Weather Underground

AWEKAS